sensor_id;sensor_type;location;lat;lon;timestamp;P1;durP1;ratioP1;P2;durP2;ratioP2
15952;SDS011;8075;47.766;8.846;2023-05-19T00:00:59;4.18;;;2.20;;
15952;SDS011;8075;47.766;8.846;2023-05-19T00:03:25;2.63;;;2.13;;
15952;SDS011;8075;47.766;8.846;2023-05-19T00:05:52;3.33;;;2.00;;
15952;SDS011;8075;47.766;8.846;2023-05-19T00:08:18;3.22;;;1.80;;
15952;SDS011;8075;47.766;8.846;2023-05-19T00:10:45;2.75;;;1.90;;
15952;SDS011;8075;47.766;8.846;2023-05-19T00:13:11;4.33;;;2.10;;
15952;SDS011;8075;47.766;8.846;2023-05-19T00:15:37;2.58;;;1.90;;
15952;SDS011;8075;47.766;8.846;2023-05-19T00:18:04;2.83;;;1.80;;
15952;SDS011;8075;47.766;8.846;2023-05-19T00:20:32;2.20;;;1.70;;
15952;SDS011;8075;47.766;8.846;2023-05-19T00:22:58;2.78;;;2.03;;
15952;SDS011;8075;47.766;8.846;2023-05-19T00:25:25;2.50;;;2.00;;
15952;SDS011;8075;47.766;8.846;2023-05-19T00:27:51;2.88;;;1.70;;
15952;SDS011;8075;47.766;8.846;2023-05-19T00:30:17;5.55;;;2.40;;
15952;SDS011;8075;47.766;8.846;2023-05-19T00:32:43;2.60;;;1.70;;
15952;SDS011;8075;47.766;8.846;2023-05-19T00:35:09;2.65;;;1.63;;
15952;SDS011;8075;47.766;8.846;2023-05-19T00:37:35;2.78;;;1.80;;
15952;SDS011;8075;47.766;8.846;2023-05-19T00:40:01;2.90;;;1.73;;
15952;SDS011;8075;47.766;8.846;2023-05-19T00:42:29;2.53;;;1.83;;
15952;SDS011;8075;47.766;8.846;2023-05-19T00:44:56;3.85;;;2.10;;
15952;SDS011;8075;47.766;8.846;2023-05-19T00:47:22;2.83;;;2.03;;
15952;SDS011;8075;47.766;8.846;2023-05-19T00:49:48;3.17;;;2.00;;
15952;SDS011;8075;47.766;8.846;2023-05-19T00:52:14;3.67;;;1.80;;
15952;SDS011;8075;47.766;8.846;2023-05-19T00:54:40;2.27;;;1.90;;
15952;SDS011;8075;47.766;8.846;2023-05-19T00:57:07;2.40;;;1.80;;
15952;SDS011;8075;47.766;8.846;2023-05-19T00:59:33;2.00;;;1.47;;
15952;SDS011;8075;47.766;8.846;2023-05-19T01:01:59;3.03;;;1.83;;
15952;SDS011;8075;47.766;8.846;2023-05-19T01:04:29;3.08;;;1.90;;
15952;SDS011;8075;47.766;8.846;2023-05-19T01:06:59;2.45;;;1.80;;
15952;SDS011;8075;47.766;8.846;2023-05-19T01:09:25;3.47;;;1.80;;
15952;SDS011;8075;47.766;8.846;2023-05-19T01:11:51;3.47;;;1.92;;
15952;SDS011;8075;47.766;8.846;2023-05-19T01:14:17;3.88;;;2.00;;
15952;SDS011;8075;47.766;8.846;2023-05-19T01:16:46;2.40;;;1.80;;
15952;SDS011;8075;47.766;8.846;2023-05-19T01:21:48;2.53;;;1.73;;
15952;SDS011;8075;47.766;8.846;2023-05-19T01:32:25;2.87;;;1.90;;
15952;SDS011;8075;47.766;8.846;2023-05-19T01:34:51;3.20;;;1.90;;
15952;SDS011;8075;47.766;8.846;2023-05-19T01:37:18;3.20;;;2.20;;
15952;SDS011;8075;47.766;8.846;2023-05-19T01:39:46;2.83;;;1.80;;
15952;SDS011;8075;47.766;8.846;2023-05-19T01:42:13;2.70;;;1.90;;
15952;SDS011;8075;47.766;8.846;2023-05-19T01:44:39;3.00;;;2.00;;
15952;SDS011;8075;47.766;8.846;2023-05-19T01:47:05;3.30;;;2.30;;
15952;SDS011;8075;47.766;8.846;2023-05-19T01:49:31;3.13;;;2.10;;
15952;SDS011;8075;47.766;8.846;2023-05-19T01:51:57;2.60;;;2.05;;
15952;SDS011;8075;47.766;8.846;2023-05-19T01:54:23;3.17;;;2.40;;
15952;SDS011;8075;47.766;8.846;2023-05-19T01:59:27;3.15;;;2.45;;
15952;SDS011;8075;47.766;8.846;2023-05-19T02:02:00;4.20;;;2.40;;
15952;SDS011;8075;47.766;8.846;2023-05-19T02:07:36;4.03;;;2.50;;
15952;SDS011;8075;47.766;8.846;2023-05-19T02:10:10;3.60;;;2.42;;
15952;SDS011;8075;47.766;8.846;2023-05-19T02:12:37;3.63;;;2.20;;
15952;SDS011;8075;47.766;8.846;2023-05-19T02:15:11;4.80;;;2.70;;
15952;SDS011;8075;47.766;8.846;2023-05-19T02:17:39;4.28;;;2.40;;
15952;SDS011;8075;47.766;8.846;2023-05-19T02:20:06;2.72;;;2.47;;
15952;SDS011;8075;47.766;8.846;2023-05-19T02:22:36;3.00;;;2.70;;
15952;SDS011;8075;47.766;8.846;2023-05-19T02:25:02;3.30;;;2.50;;
15952;SDS011;8075;47.766;8.846;2023-05-19T02:27:28;4.03;;;2.38;;
15952;SDS011;8075;47.766;8.846;2023-05-19T02:29:54;4.00;;;2.40;;
15952;SDS011;8075;47.766;8.846;2023-05-19T02:32:20;3.03;;;2.40;;
15952;SDS011;8075;47.766;8.846;2023-05-19T02:34:46;3.70;;;2.63;;
15952;SDS011;8075;47.766;8.846;2023-05-19T02:37:12;2.85;;;2.30;;
15952;SDS011;8075;47.766;8.846;2023-05-19T02:39:39;2.50;;;2.30;;
15952;SDS011;8075;47.766;8.846;2023-05-19T02:42:05;4.03;;;2.60;;
15952;SDS011;8075;47.766;8.846;2023-05-19T02:44:31;3.42;;;2.63;;
15952;SDS011;8075;47.766;8.846;2023-05-19T02:46:57;3.63;;;2.35;;
15952;SDS011;8075;47.766;8.846;2023-05-19T02:49:22;3.43;;;2.30;;
15952;SDS011;8075;47.766;8.846;2023-05-19T02:51:48;3.13;;;2.70;;
15952;SDS011;8075;47.766;8.846;2023-05-19T02:54:14;2.95;;;2.30;;
15952;SDS011;8075;47.766;8.846;2023-05-19T02:56:40;2.95;;;2.40;;
15952;SDS011;8075;47.766;8.846;2023-05-19T02:59:06;4.10;;;2.65;;
15952;SDS011;8075;47.766;8.846;2023-05-19T03:01:32;3.25;;;2.47;;
15952;SDS011;8075;47.766;8.846;2023-05-19T03:03:58;3.90;;;2.30;;
15952;SDS011;8075;47.766;8.846;2023-05-19T03:06:24;3.92;;;2.58;;
15952;SDS011;8075;47.766;8.846;2023-05-19T03:08:50;2.90;;;2.30;;
15952;SDS011;8075;47.766;8.846;2023-05-19T03:11:16;2.63;;;2.40;;
15952;SDS011;8075;47.766;8.846;2023-05-19T03:13:42;2.40;;;2.20;;
15952;SDS011;8075;47.766;8.846;2023-05-19T03:16:08;2.83;;;2.53;;
15952;SDS011;8075;47.766;8.846;2023-05-19T03:18:37;3.17;;;2.50;;
15952;SDS011;8075;47.766;8.846;2023-05-19T03:21:03;2.45;;;2.17;;
15952;SDS011;8075;47.766;8.846;2023-05-19T03:23:29;2.83;;;2.17;;
15952;SDS011;8075;47.766;8.846;2023-05-19T03:25:55;3.30;;;2.40;;
15952;SDS011;8075;47.766;8.846;2023-05-19T03:28:21;3.67;;;2.65;;
15952;SDS011;8075;47.766;8.846;2023-05-19T03:30:48;2.85;;;2.50;;
15952;SDS011;8075;47.766;8.846;2023-05-19T03:33:14;3.00;;;2.72;;
15952;SDS011;8075;47.766;8.846;2023-05-19T03:35:40;5.78;;;2.58;;
15952;SDS011;8075;47.766;8.846;2023-05-19T03:38:08;3.83;;;3.00;;
15952;SDS011;8075;47.766;8.846;2023-05-19T03:40:34;3.65;;;3.00;;
15952;SDS011;8075;47.766;8.846;2023-05-19T03:43:00;3.50;;;2.70;;
15952;SDS011;8075;47.766;8.846;2023-05-19T03:45:26;3.27;;;2.70;;
15952;SDS011;8075;47.766;8.846;2023-05-19T03:47:52;2.88;;;2.60;;
15952;SDS011;8075;47.766;8.846;2023-05-19T03:50:18;3.20;;;2.90;;
15952;SDS011;8075;47.766;8.846;2023-05-19T03:52:45;3.60;;;2.92;;
15952;SDS011;8075;47.766;8.846;2023-05-19T03:55:12;4.20;;;2.70;;
15952;SDS011;8075;47.766;8.846;2023-05-19T03:57:44;4.45;;;2.88;;
15952;SDS011;8075;47.766;8.846;2023-05-19T04:00:10;3.90;;;2.92;;
15952;SDS011;8075;47.766;8.846;2023-05-19T04:02:36;3.85;;;3.42;;
15952;SDS011;8075;47.766;8.846;2023-05-19T04:05:02;3.83;;;3.00;;
15952;SDS011;8075;47.766;8.846;2023-05-19T04:07:29;3.65;;;3.28;;
15952;SDS011;8075;47.766;8.846;2023-05-19T04:09:55;5.05;;;3.28;;
15952;SDS011;8075;47.766;8.846;2023-05-19T04:12:21;3.92;;;3.42;;
15952;SDS011;8075;47.766;8.846;2023-05-19T04:14:47;4.07;;;3.60;;
15952;SDS011;8075;47.766;8.846;2023-05-19T04:17:13;3.70;;;3.30;;
15952;SDS011;8075;47.766;8.846;2023-05-19T04:19:39;3.72;;;3.33;;
15952;SDS011;8075;47.766;8.846;2023-05-19T04:22:05;5.28;;;3.42;;
15952;SDS011;8075;47.766;8.846;2023-05-19T04:24:34;4.68;;;3.60;;
15952;SDS011;8075;47.766;8.846;2023-05-19T04:27:00;4.50;;;3.70;;
15952;SDS011;8075;47.766;8.846;2023-05-19T04:29:28;4.88;;;3.80;;
15952;SDS011;8075;47.766;8.846;2023-05-19T04:31:54;6.43;;;3.60;;
15952;SDS011;8075;47.766;8.846;2023-05-19T04:34:24;5.00;;;3.55;;
15952;SDS011;8075;47.766;8.846;2023-05-19T04:36:52;4.65;;;3.58;;
15952;SDS011;8075;47.766;8.846;2023-05-19T04:39:19;4.38;;;3.72;;
15952;SDS011;8075;47.766;8.846;2023-05-19T04:41:45;4.25;;;3.60;;
15952;SDS011;8075;47.766;8.846;2023-05-19T04:44:12;4.15;;;3.70;;
15952;SDS011;8075;47.766;8.846;2023-05-19T04:46:42;5.07;;;3.80;;
15952;SDS011;8075;47.766;8.846;2023-05-19T04:49:09;4.80;;;3.80;;
15952;SDS011;8075;47.766;8.846;2023-05-19T04:51:38;6.10;;;3.95;;
15952;SDS011;8075;47.766;8.846;2023-05-19T04:54:08;4.60;;;4.03;;
15952;SDS011;8075;47.766;8.846;2023-05-19T04:56:35;5.38;;;3.60;;
15952;SDS011;8075;47.766;8.846;2023-05-19T04:59:01;6.10;;;3.93;;
15952;SDS011;8075;47.766;8.846;2023-05-19T05:01:27;4.80;;;3.90;;
15952;SDS011;8075;47.766;8.846;2023-05-19T05:03:55;5.00;;;4.10;;
15952;SDS011;8075;47.766;8.846;2023-05-19T05:06:22;6.15;;;4.40;;
15952;SDS011;8075;47.766;8.846;2023-05-19T05:08:49;5.60;;;4.20;;
15952;SDS011;8075;47.766;8.846;2023-05-19T05:11:15;6.60;;;4.32;;
15952;SDS011;8075;47.766;8.846;2023-05-19T05:13:41;4.68;;;4.03;;
15952;SDS011;8075;47.766;8.846;2023-05-19T05:16:07;6.55;;;4.72;;
15952;SDS011;8075;47.766;8.846;2023-05-19T05:18:34;5.90;;;4.30;;
15952;SDS011;8075;47.766;8.846;2023-05-19T05:21:02;7.65;;;4.47;;
15952;SDS011;8075;47.766;8.846;2023-05-19T05:23:28;7.13;;;4.50;;
15952;SDS011;8075;47.766;8.846;2023-05-19T05:25:55;7.88;;;4.50;;
15952;SDS011;8075;47.766;8.846;2023-05-19T05:28:21;6.47;;;4.47;;
15952;SDS011;8075;47.766;8.846;2023-05-19T05:30:47;6.47;;;4.28;;
15952;SDS011;8075;47.766;8.846;2023-05-19T05:33:14;5.50;;;4.85;;
15952;SDS011;8075;47.766;8.846;2023-05-19T05:35:40;8.43;;;4.90;;
15952;SDS011;8075;47.766;8.846;2023-05-19T05:38:06;6.55;;;4.53;;
15952;SDS011;8075;47.766;8.846;2023-05-19T05:40:32;8.15;;;4.88;;
15952;SDS011;8075;47.766;8.846;2023-05-19T05:42:58;6.93;;;4.50;;
15952;SDS011;8075;47.766;8.846;2023-05-19T05:45:24;5.28;;;4.38;;
15952;SDS011;8075;47.766;8.846;2023-05-19T05:47:50;7.30;;;4.60;;
15952;SDS011;8075;47.766;8.846;2023-05-19T05:50:17;8.90;;;4.43;;
15952;SDS011;8075;47.766;8.846;2023-05-19T05:52:46;6.90;;;4.38;;
15952;SDS011;8075;47.766;8.846;2023-05-19T05:55:12;8.30;;;4.60;;
15952;SDS011;8075;47.766;8.846;2023-05-19T05:57:39;7.40;;;4.38;;
15952;SDS011;8075;47.766;8.846;2023-05-19T06:00:08;8.57;;;4.90;;
15952;SDS011;8075;47.766;8.846;2023-05-19T06:02:39;5.47;;;4.53;;
15952;SDS011;8075;47.766;8.846;2023-05-19T06:05:05;6.80;;;4.90;;
15952;SDS011;8075;47.766;8.846;2023-05-19T06:07:31;7.60;;;4.45;;
15952;SDS011;8075;47.766;8.846;2023-05-19T06:09:57;7.75;;;4.60;;
15952;SDS011;8075;47.766;8.846;2023-05-19T06:12:23;7.20;;;4.32;;
15952;SDS011;8075;47.766;8.846;2023-05-19T06:14:51;8.10;;;4.90;;
15952;SDS011;8075;47.766;8.846;2023-05-19T06:17:17;7.53;;;4.30;;
15952;SDS011;8075;47.766;8.846;2023-05-19T06:19:43;7.18;;;4.70;;
15952;SDS011;8075;47.766;8.846;2023-05-19T06:22:09;8.00;;;4.50;;
15952;SDS011;8075;47.766;8.846;2023-05-19T06:24:35;8.60;;;4.70;;
15952;SDS011;8075;47.766;8.846;2023-05-19T06:27:01;6.45;;;4.25;;
15952;SDS011;8075;47.766;8.846;2023-05-19T06:29:27;7.07;;;4.35;;
15952;SDS011;8075;47.766;8.846;2023-05-19T06:31:53;6.50;;;4.40;;
15952;SDS011;8075;47.766;8.846;2023-05-19T06:34:19;8.65;;;4.38;;
15952;SDS011;8075;47.766;8.846;2023-05-19T06:36:45;7.15;;;4.45;;
15952;SDS011;8075;47.766;8.846;2023-05-19T06:39:11;5.57;;;4.10;;
15952;SDS011;8075;47.766;8.846;2023-05-19T06:41:37;9.55;;;4.60;;
15952;SDS011;8075;47.766;8.846;2023-05-19T06:44:05;7.32;;;4.40;;
15952;SDS011;8075;47.766;8.846;2023-05-19T06:46:33;7.03;;;4.57;;
15952;SDS011;8075;47.766;8.846;2023-05-19T06:48:59;8.30;;;4.60;;
15952;SDS011;8075;47.766;8.846;2023-05-19T06:51:25;7.80;;;4.50;;
15952;SDS011;8075;47.766;8.846;2023-05-19T06:53:51;7.88;;;4.60;;
15952;SDS011;8075;47.766;8.846;2023-05-19T06:56:17;6.72;;;4.15;;
15952;SDS011;8075;47.766;8.846;2023-05-19T06:58:43;7.13;;;4.00;;
15952;SDS011;8075;47.766;8.846;2023-05-19T07:01:09;11.82;;;4.65;;
15952;SDS011;8075;47.766;8.846;2023-05-19T07:03:35;5.70;;;4.22;;
15952;SDS011;8075;47.766;8.846;2023-05-19T07:06:01;9.65;;;4.63;;
15952;SDS011;8075;47.766;8.846;2023-05-19T07:08:27;8.02;;;4.30;;
15952;SDS011;8075;47.766;8.846;2023-05-19T07:10:53;5.95;;;3.92;;
15952;SDS011;8075;47.766;8.846;2023-05-19T07:13:20;9.27;;;4.22;;
15952;SDS011;8075;47.766;8.846;2023-05-19T07:15:46;7.05;;;4.50;;
15952;SDS011;8075;47.766;8.846;2023-05-19T07:18:16;6.50;;;4.40;;
15952;SDS011;8075;47.766;8.846;2023-05-19T07:20:42;7.07;;;4.50;;
15952;SDS011;8075;47.766;8.846;2023-05-19T07:23:08;7.68;;;4.43;;
15952;SDS011;8075;47.766;8.846;2023-05-19T07:25:34;5.93;;;4.38;;
15952;SDS011;8075;47.766;8.846;2023-05-19T07:28:00;5.97;;;4.13;;
15952;SDS011;8075;47.766;8.846;2023-05-19T07:30:26;6.65;;;4.28;;
15952;SDS011;8075;47.766;8.846;2023-05-19T07:32:53;4.97;;;4.30;;
15952;SDS011;8075;47.766;8.846;2023-05-19T07:35:19;8.25;;;4.45;;
15952;SDS011;8075;47.766;8.846;2023-05-19T07:37:48;6.90;;;4.22;;
15952;SDS011;8075;47.766;8.846;2023-05-19T07:40:15;6.38;;;4.50;;
15952;SDS011;8075;47.766;8.846;2023-05-19T07:42:41;7.68;;;4.22;;
15952;SDS011;8075;47.766;8.846;2023-05-19T07:45:07;7.93;;;4.50;;
15952;SDS011;8075;47.766;8.846;2023-05-19T07:47:33;5.40;;;4.03;;
15952;SDS011;8075;47.766;8.846;2023-05-19T07:49:59;7.82;;;4.45;;
15952;SDS011;8075;47.766;8.846;2023-05-19T07:52:25;5.00;;;3.60;;
15952;SDS011;8075;47.766;8.846;2023-05-19T07:54:51;6.72;;;4.05;;
15952;SDS011;8075;47.766;8.846;2023-05-19T07:57:17;6.53;;;3.88;;
15952;SDS011;8075;47.766;8.846;2023-05-19T07:59:43;7.87;;;4.17;;
15952;SDS011;8075;47.766;8.846;2023-05-19T08:02:09;6.63;;;3.60;;
15952;SDS011;8075;47.766;8.846;2023-05-19T08:04:35;5.68;;;3.83;;
15952;SDS011;8075;47.766;8.846;2023-05-19T08:07:01;7.43;;;3.78;;
15952;SDS011;8075;47.766;8.846;2023-05-19T08:09:28;5.35;;;4.07;;
15952;SDS011;8075;47.766;8.846;2023-05-19T08:11:54;4.85;;;3.85;;
15952;SDS011;8075;47.766;8.846;2023-05-19T08:14:20;7.38;;;4.50;;
15952;SDS011;8075;47.766;8.846;2023-05-19T08:16:47;5.60;;;4.03;;
15952;SDS011;8075;47.766;8.846;2023-05-19T08:19:12;6.38;;;3.95;;
15952;SDS011;8075;47.766;8.846;2023-05-19T08:21:38;9.55;;;4.10;;
15952;SDS011;8075;47.766;8.846;2023-05-19T08:24:06;5.45;;;3.80;;
15952;SDS011;8075;47.766;8.846;2023-05-19T08:26:32;6.38;;;3.42;;
15952;SDS011;8075;47.766;8.846;2023-05-19T08:28:58;6.03;;;4.10;;
15952;SDS011;8075;47.766;8.846;2023-05-19T08:31:24;5.25;;;3.60;;
15952;SDS011;8075;47.766;8.846;2023-05-19T08:33:50;6.43;;;3.83;;
15952;SDS011;8075;47.766;8.846;2023-05-19T08:36:16;4.97;;;3.72;;
15952;SDS011;8075;47.766;8.846;2023-05-19T08:38:43;7.30;;;4.07;;
15952;SDS011;8075;47.766;8.846;2023-05-19T08:41:09;5.22;;;3.40;;
15952;SDS011;8075;47.766;8.846;2023-05-19T08:43:35;5.07;;;3.53;;
15952;SDS011;8075;47.766;8.846;2023-05-19T08:46:01;6.78;;;3.47;;
15952;SDS011;8075;47.766;8.846;2023-05-19T08:48:30;7.00;;;3.67;;
15952;SDS011;8075;47.766;8.846;2023-05-19T08:51:07;7.40;;;3.78;;
15952;SDS011;8075;47.766;8.846;2023-05-19T08:53:35;6.43;;;3.80;;
15952;SDS011;8075;47.766;8.846;2023-05-19T08:56:03;4.75;;;3.20;;
15952;SDS011;8075;47.766;8.846;2023-05-19T08:58:35;7.32;;;4.45;;
15952;SDS011;8075;47.766;8.846;2023-05-19T09:01:02;5.38;;;3.83;;
15952;SDS011;8075;47.766;8.846;2023-05-19T09:03:30;5.72;;;3.28;;
15952;SDS011;8075;47.766;8.846;2023-05-19T09:05:57;4.97;;;3.13;;
15952;SDS011;8075;47.766;8.846;2023-05-19T09:08:23;5.97;;;3.50;;
15952;SDS011;8075;47.766;8.846;2023-05-19T09:10:49;4.22;;;3.38;;
15952;SDS011;8075;47.766;8.846;2023-05-19T09:13:15;4.90;;;3.47;;
15952;SDS011;8075;47.766;8.846;2023-05-19T09:15:41;5.25;;;3.33;;
15952;SDS011;8075;47.766;8.846;2023-05-19T09:18:12;3.67;;;3.28;;
15952;SDS011;8075;47.766;8.846;2023-05-19T09:20:39;4.15;;;3.10;;
15952;SDS011;8075;47.766;8.846;2023-05-19T09:23:06;3.90;;;2.90;;
15952;SDS011;8075;47.766;8.846;2023-05-19T09:25:32;4.65;;;3.45;;
15952;SDS011;8075;47.766;8.846;2023-05-19T09:27:58;5.10;;;3.38;;
15952;SDS011;8075;47.766;8.846;2023-05-19T09:30:24;3.53;;;2.78;;
15952;SDS011;8075;47.766;8.846;2023-05-19T09:32:50;4.22;;;3.08;;
15952;SDS011;8075;47.766;8.846;2023-05-19T09:35:16;6.45;;;3.30;;
15952;SDS011;8075;47.766;8.846;2023-05-19T09:37:44;5.63;;;3.00;;
15952;SDS011;8075;47.766;8.846;2023-05-19T09:40:12;7.13;;;3.03;;
15952;SDS011;8075;47.766;8.846;2023-05-19T09:42:39;5.37;;;3.37;;
15952;SDS011;8075;47.766;8.846;2023-05-19T09:45:05;3.38;;;3.08;;
15952;SDS011;8075;47.766;8.846;2023-05-19T09:47:32;4.35;;;3.22;;
15952;SDS011;8075;47.766;8.846;2023-05-19T09:50:00;5.63;;;3.45;;
15952;SDS011;8075;47.766;8.846;2023-05-19T09:52:26;4.77;;;3.40;;
15952;SDS011;8075;47.766;8.846;2023-05-19T09:54:53;4.85;;;3.22;;
15952;SDS011;8075;47.766;8.846;2023-05-19T09:57:24;5.25;;;3.30;;
15952;SDS011;8075;47.766;8.846;2023-05-19T09:59:51;5.25;;;3.28;;
15952;SDS011;8075;47.766;8.846;2023-05-19T10:02:18;6.45;;;3.15;;
15952;SDS011;8075;47.766;8.846;2023-05-19T10:04:45;5.03;;;3.15;;
15952;SDS011;8075;47.766;8.846;2023-05-19T10:07:11;5.30;;;3.43;;
15952;SDS011;8075;47.766;8.846;2023-05-19T10:09:39;3.53;;;3.17;;
15952;SDS011;8075;47.766;8.846;2023-05-19T10:12:06;3.67;;;3.17;;
15952;SDS011;8075;47.766;8.846;2023-05-19T10:14:33;4.82;;;3.10;;
15952;SDS011;8075;47.766;8.846;2023-05-19T10:16:59;5.25;;;2.92;;
15952;SDS011;8075;47.766;8.846;2023-05-19T10:19:28;3.30;;;2.70;;
15952;SDS011;8075;47.766;8.846;2023-05-19T10:21:54;4.47;;;3.10;;
15952;SDS011;8075;47.766;8.846;2023-05-19T10:24:20;4.97;;;2.92;;
15952;SDS011;8075;47.766;8.846;2023-05-19T10:29:16;4.28;;;3.10;;
15952;SDS011;8075;47.766;8.846;2023-05-19T10:31:43;6.10;;;3.03;;
15952;SDS011;8075;47.766;8.846;2023-05-19T10:36:58;3.92;;;2.95;;
15952;SDS011;8075;47.766;8.846;2023-05-19T10:39:29;4.40;;;2.78;;
15952;SDS011;8075;47.766;8.846;2023-05-19T10:45:02;8.53;;;3.10;;
15952;SDS011;8075;47.766;8.846;2023-05-19T10:47:31;3.70;;;2.60;;
15952;SDS011;8075;47.766;8.846;2023-05-19T10:50:01;5.30;;;3.00;;
15952;SDS011;8075;47.766;8.846;2023-05-19T10:52:30;4.75;;;2.70;;
15952;SDS011;8075;47.766;8.846;2023-05-19T10:55:01;4.10;;;2.80;;
15952;SDS011;8075;47.766;8.846;2023-05-19T10:57:28;3.13;;;2.83;;
15952;SDS011;8075;47.766;8.846;2023-05-19T10:59:57;2.75;;;2.55;;
15952;SDS011;8075;47.766;8.846;2023-05-19T11:02:45;5.18;;;3.35;;
15952;SDS011;8075;47.766;8.846;2023-05-19T11:05:14;4.60;;;3.15;;
15952;SDS011;8075;47.766;8.846;2023-05-19T11:08:04;4.70;;;3.60;;
15952;SDS011;8075;47.766;8.846;2023-05-19T11:10:28;5.15;;;3.60;;
15952;SDS011;8075;47.766;8.846;2023-05-19T11:12:55;7.05;;;3.70;;
15952;SDS011;8075;47.766;8.846;2023-05-19T11:15:23;3.95;;;3.17;;
15952;SDS011;8075;47.766;8.846;2023-05-19T11:17:51;5.00;;;3.30;;
15952;SDS011;8075;47.766;8.846;2023-05-19T11:20:21;5.40;;;3.63;;
15952;SDS011;8075;47.766;8.846;2023-05-19T11:23:07;5.53;;;4.53;;
15952;SDS011;8075;47.766;8.846;2023-05-19T11:26:06;5.75;;;3.30;;
15952;SDS011;8075;47.766;8.846;2023-05-19T11:28:26;3.97;;;2.92;;
15952;SDS011;8075;47.766;8.846;2023-05-19T11:30:53;3.95;;;2.60;;
15952;SDS011;8075;47.766;8.846;2023-05-19T11:33:21;4.43;;;2.77;;
15952;SDS011;8075;47.766;8.846;2023-05-19T11:35:51;3.57;;;2.40;;
15952;SDS011;8075;47.766;8.846;2023-05-19T11:38:17;4.25;;;2.70;;
15952;SDS011;8075;47.766;8.846;2023-05-19T11:40:44;4.68;;;2.92;;
15952;SDS011;8075;47.766;8.846;2023-05-19T11:43:11;3.60;;;3.00;;
15952;SDS011;8075;47.766;8.846;2023-05-19T11:45:37;4.27;;;2.70;;
15952;SDS011;8075;47.766;8.846;2023-05-19T11:48:03;4.20;;;2.30;;
15952;SDS011;8075;47.766;8.846;2023-05-19T11:50:30;3.67;;;2.30;;
15952;SDS011;8075;47.766;8.846;2023-05-19T11:52:58;2.78;;;2.30;;
15952;SDS011;8075;47.766;8.846;2023-05-19T11:55:24;4.38;;;2.53;;
15952;SDS011;8075;47.766;8.846;2023-05-19T12:00:23;4.87;;;2.90;;
15952;SDS011;8075;47.766;8.846;2023-05-19T12:02:49;5.05;;;3.58;;
15952;SDS011;8075;47.766;8.846;2023-05-19T12:05:24;5.45;;;3.45;;
15952;SDS011;8075;47.766;8.846;2023-05-19T12:07:51;4.88;;;4.13;;
15952;SDS011;8075;47.766;8.846;2023-05-19T12:10:21;4.40;;;3.63;;
15952;SDS011;8075;47.766;8.846;2023-05-19T12:12:47;4.67;;;3.70;;
15952;SDS011;8075;47.766;8.846;2023-05-19T12:15:17;5.57;;;3.90;;
15952;SDS011;8075;47.766;8.846;2023-05-19T12:17:44;5.60;;;3.47;;
15952;SDS011;8075;47.766;8.846;2023-05-19T12:20:12;4.95;;;3.40;;
15952;SDS011;8075;47.766;8.846;2023-05-19T12:22:38;4.70;;;3.80;;
15952;SDS011;8075;47.766;8.846;2023-05-19T12:25:04;4.37;;;3.30;;
15952;SDS011;8075;47.766;8.846;2023-05-19T12:27:33;4.85;;;3.22;;
15952;SDS011;8075;47.766;8.846;2023-05-19T12:30:01;4.15;;;3.05;;
15952;SDS011;8075;47.766;8.846;2023-05-19T12:32:27;5.30;;;3.38;;
15952;SDS011;8075;47.766;8.846;2023-05-19T12:34:56;4.15;;;2.80;;
15952;SDS011;8075;47.766;8.846;2023-05-19T12:37:25;4.20;;;2.70;;
15952;SDS011;8075;47.766;8.846;2023-05-19T12:39:51;4.60;;;2.58;;
15952;SDS011;8075;47.766;8.846;2023-05-19T12:42:18;2.88;;;2.40;;
15952;SDS011;8075;47.766;8.846;2023-05-19T12:44:45;3.27;;;2.30;;
15952;SDS011;8075;47.766;8.846;2023-05-19T12:47:12;3.97;;;2.38;;
15952;SDS011;8075;47.766;8.846;2023-05-19T12:49:54;3.63;;;2.60;;
15952;SDS011;8075;47.766;8.846;2023-05-19T12:52:21;3.07;;;2.53;;
15952;SDS011;8075;47.766;8.846;2023-05-19T12:54:49;4.28;;;2.70;;
15952;SDS011;8075;47.766;8.846;2023-05-19T12:57:22;3.17;;;2.67;;
15952;SDS011;8075;47.766;8.846;2023-05-19T12:59:48;2.85;;;2.10;;
15952;SDS011;8075;47.766;8.846;2023-05-19T13:02:14;3.10;;;2.40;;
15952;SDS011;8075;47.766;8.846;2023-05-19T13:04:41;3.00;;;2.70;;
15952;SDS011;8075;47.766;8.846;2023-05-19T13:07:07;3.92;;;2.70;;
15952;SDS011;8075;47.766;8.846;2023-05-19T13:09:33;3.90;;;2.65;;
15952;SDS011;8075;47.766;8.846;2023-05-19T13:12:00;3.45;;;2.72;;
15952;SDS011;8075;47.766;8.846;2023-05-19T13:14:26;3.35;;;2.58;;
15952;SDS011;8075;47.766;8.846;2023-05-19T13:16:52;5.63;;;3.30;;
15952;SDS011;8075;47.766;8.846;2023-05-19T13:19:18;5.72;;;3.35;;
15952;SDS011;8075;47.766;8.846;2023-05-19T13:21:44;4.78;;;3.35;;
15952;SDS011;8075;47.766;8.846;2023-05-19T13:24:11;4.70;;;3.17;;
15952;SDS011;8075;47.766;8.846;2023-05-19T13:26:37;4.33;;;3.43;;
15952;SDS011;8075;47.766;8.846;2023-05-19T13:29:03;5.13;;;3.22;;
15952;SDS011;8075;47.766;8.846;2023-05-19T13:31:29;4.63;;;3.50;;
15952;SDS011;8075;47.766;8.846;2023-05-19T13:33:55;3.97;;;3.58;;
15952;SDS011;8075;47.766;8.846;2023-05-19T13:36:22;5.20;;;3.85;;
15952;SDS011;8075;47.766;8.846;2023-05-19T13:38:48;5.03;;;4.25;;
15952;SDS011;8075;47.766;8.846;2023-05-19T13:41:14;5.57;;;3.90;;
15952;SDS011;8075;47.766;8.846;2023-05-19T13:43:39;5.63;;;4.30;;
15952;SDS011;8075;47.766;8.846;2023-05-19T13:46:06;7.85;;;4.97;;
15952;SDS011;8075;47.766;8.846;2023-05-19T13:48:32;5.32;;;4.70;;
15952;SDS011;8075;47.766;8.846;2023-05-19T13:50:58;5.80;;;4.78;;
15952;SDS011;8075;47.766;8.846;2023-05-19T13:53:24;4.83;;;4.40;;
15952;SDS011;8075;47.766;8.846;2023-05-19T13:55:50;6.30;;;4.70;;
15952;SDS011;8075;47.766;8.846;2023-05-19T13:58:19;6.38;;;4.32;;
15952;SDS011;8075;47.766;8.846;2023-05-19T14:00:45;4.82;;;4.35;;
15952;SDS011;8075;47.766;8.846;2023-05-19T14:03:11;5.00;;;4.60;;
15952;SDS011;8075;47.766;8.846;2023-05-19T14:05:39;5.03;;;4.60;;
15952;SDS011;8075;47.766;8.846;2023-05-19T14:08:05;5.90;;;4.43;;
15952;SDS011;8075;47.766;8.846;2023-05-19T14:10:31;5.60;;;4.70;;
15952;SDS011;8075;47.766;8.846;2023-05-19T14:12:57;5.25;;;4.53;;
15952;SDS011;8075;47.766;8.846;2023-05-19T14:15:24;8.75;;;4.93;;
15952;SDS011;8075;47.766;8.846;2023-05-19T14:17:50;5.57;;;4.67;;
15952;SDS011;8075;47.766;8.846;2023-05-19T14:20:17;7.70;;;4.97;;
15952;SDS011;8075;47.766;8.846;2023-05-19T14:22:43;5.85;;;4.93;;
15952;SDS011;8075;47.766;8.846;2023-05-19T14:25:09;6.03;;;4.38;;
15952;SDS011;8075;47.766;8.846;2023-05-19T14:27:35;5.05;;;4.60;;
15952;SDS011;8075;47.766;8.846;2023-05-19T14:30:01;6.32;;;4.18;;
15952;SDS011;8075;47.766;8.846;2023-05-19T14:32:27;6.28;;;3.80;;
15952;SDS011;8075;47.766;8.846;2023-05-19T14:34:53;5.43;;;4.20;;
15952;SDS011;8075;47.766;8.846;2023-05-19T14:37:19;5.57;;;4.40;;
15952;SDS011;8075;47.766;8.846;2023-05-19T14:39:45;5.50;;;5.00;;
15952;SDS011;8075;47.766;8.846;2023-05-19T14:42:11;5.53;;;4.90;;
15952;SDS011;8075;47.766;8.846;2023-05-19T14:44:37;5.88;;;4.38;;
15952;SDS011;8075;47.766;8.846;2023-05-19T14:47:03;5.20;;;4.70;;
15952;SDS011;8075;47.766;8.846;2023-05-19T14:49:31;5.10;;;4.60;;
15952;SDS011;8075;47.766;8.846;2023-05-19T14:51:57;6.47;;;4.70;;
15952;SDS011;8075;47.766;8.846;2023-05-19T14:54:23;5.07;;;4.57;;
15952;SDS011;8075;47.766;8.846;2023-05-19T14:56:49;5.72;;;4.82;;
15952;SDS011;8075;47.766;8.846;2023-05-19T14:59:15;5.60;;;5.00;;
15952;SDS011;8075;47.766;8.846;2023-05-19T15:01:41;5.47;;;4.68;;
15952;SDS011;8075;47.766;8.846;2023-05-19T15:04:07;4.90;;;4.43;;
15952;SDS011;8075;47.766;8.846;2023-05-19T15:06:33;6.30;;;4.67;;
15952;SDS011;8075;47.766;8.846;2023-05-19T15:08:58;5.20;;;4.70;;
15952;SDS011;8075;47.766;8.846;2023-05-19T15:11:24;4.45;;;4.05;;
15952;SDS011;8075;47.766;8.846;2023-05-19T15:13:50;6.00;;;3.70;;
15952;SDS011;8075;47.766;8.846;2023-05-19T15:16:17;4.83;;;3.90;;
15952;SDS011;8075;47.766;8.846;2023-05-19T15:18:43;4.47;;;3.90;;
15952;SDS011;8075;47.766;8.846;2023-05-19T15:21:09;4.68;;;3.50;;
15952;SDS011;8075;47.766;8.846;2023-05-19T15:23:34;5.03;;;4.53;;
15952;SDS011;8075;47.766;8.846;2023-05-19T15:26:00;4.82;;;4.43;;